sensor_id;sensor_type;location;lat;lon;timestamp;temperature;humidity
23305;DHT22;11821;51.456;8.844;2023-04-30T07:58:02;14.70;99.90
23305;DHT22;11821;51.456;8.844;2023-04-30T08:00:29;15.80;99.90
23305;DHT22;11821;51.456;8.844;2023-04-30T08:03:00;15.70;99.90
23305;DHT22;11821;51.456;8.844;2023-04-30T08:05:26;15.80;99.90
23305;DHT22;11821;51.456;8.844;2023-04-30T08:07:52;16.00;99.90
23305;DHT22;11821;51.456;8.844;2023-04-30T08:10:19;16.20;99.90
23305;DHT22;11821;51.456;8.844;2023-04-30T08:12:45;16.20;99.90
23305;DHT22;11821;51.456;8.844;2023-04-30T08:15:11;16.50;99.90
23305;DHT22;11821;51.456;8.844;2023-04-30T08:17:38;16.90;99.90
23305;DHT22;11821;51.456;8.844;2023-04-30T08:20:05;17.00;99.90
23305;DHT22;11821;51.456;8.844;2023-04-30T08:22:32;16.70;99.90
23305;DHT22;11821;51.456;8.844;2023-04-30T08:24:59;16.90;99.90
23305;DHT22;11821;51.456;8.844;2023-04-30T08:27:27;17.20;99.90
23305;DHT22;11821;51.456;8.844;2023-04-30T08:29:53;17.30;99.90
23305;DHT22;11821;51.456;8.844;2023-04-30T08:32:20;17.40;99.90
23305;DHT22;11821;51.456;8.844;2023-04-30T08:34:46;17.50;99.90
23305;DHT22;11821;51.456;8.844;2023-04-30T08:37:13;17.70;99.90
23305;DHT22;11821;51.456;8.844;2023-04-30T08:39:40;17.90;99.90
23305;DHT22;11821;51.456;8.844;2023-04-30T08:42:08;18.10;99.90
23305;DHT22;11821;51.456;8.844;2023-04-30T08:44:38;18.40;99.90
23305;DHT22;11821;51.456;8.844;2023-04-30T08:47:07;18.40;99.90
23305;DHT22;11821;51.456;8.844;2023-04-30T08:49:36;18.30;99.90
23305;DHT22;11821;51.456;8.844;2023-04-30T08:52:02;17.90;99.90
23305;DHT22;11821;51.456;8.844;2023-04-30T08:54:30;17.80;99.90
23305;DHT22;11821;51.456;8.844;2023-04-30T08:56:57;18.10;99.90
23305;DHT22;11821;51.456;8.844;2023-04-30T08:59:24;18.20;99.90
23305;DHT22;11821;51.456;8.844;2023-04-30T09:01:50;18.50;99.90
23305;DHT22;11821;51.456;8.844;2023-04-30T09:04:16;18.20;99.90
23305;DHT22;11821;51.456;8.844;2023-04-30T09:06:43;18.30;99.90
23305;DHT22;11821;51.456;8.844;2023-04-30T09:09:12;18.50;99.90
23305;DHT22;11821;51.456;8.844;2023-04-30T09:11:38;18.70;99.90
23305;DHT22;11821;51.456;8.844;2023-04-30T09:14:04;19.10;99.90
23305;DHT22;11821;51.456;8.844;2023-04-30T09:16:48;19.30;99.90
23305;DHT22;11821;51.456;8.844;2023-04-30T09:19:28;19.30;99.90
23305;DHT22;11821;51.456;8.844;2023-04-30T09:21:55;19.80;99.90
23305;DHT22;11821;51.456;8.844;2023-04-30T09:24:22;19.70;99.90
23305;DHT22;11821;51.456;8.844;2023-04-30T09:26:49;19.50;99.90
23305;DHT22;11821;51.456;8.844;2023-04-30T09:29:16;19.40;99.90
23305;DHT22;11821;51.456;8.844;2023-04-30T09:31:46;19.50;99.90
23305;DHT22;11821;51.456;8.844;2023-04-30T09:34:13;19.40;99.90
23305;DHT22;11821;51.456;8.844;2023-04-30T09:36:53;19.50;99.90
23305;DHT22;11821;51.456;8.844;2023-04-30T09:39:20;19.40;99.90
23305;DHT22;11821;51.456;8.844;2023-04-30T09:41:46;19.40;99.90
23305;DHT22;11821;51.456;8.844;2023-04-30T09:44:30;19.30;99.90
23305;DHT22;11821;51.456;8.844;2023-04-30T09:46:57;19.60;99.90
23305;DHT22;11821;51.456;8.844;2023-04-30T09:49:24;19.90;99.90
23305;DHT22;11821;51.456;8.844;2023-04-30T09:51:58;20.10;99.90
23305;DHT22;11821;51.456;8.844;2023-04-30T09:54:29;20.10;99.90
23305;DHT22;11821;51.456;8.844;2023-04-30T09:56:57;20.40;99.90
23305;DHT22;11821;51.456;8.844;2023-04-30T09:59:34;20.70;99.90
23305;DHT22;11821;51.456;8.844;2023-04-30T10:02:06;20.80;99.90
23305;DHT22;11821;51.456;8.844;2023-04-30T10:04:37;20.90;99.50
23305;DHT22;11821;51.456;8.844;2023-04-30T10:07:19;20.70;99.90
23305;DHT22;11821;51.456;8.844;2023-04-30T10:09:49;19.90;99.90
23305;DHT22;11821;51.456;8.844;2023-04-30T10:12:23;19.60;99.90
23305;DHT22;11821;51.456;8.844;2023-04-30T10:14:56;19.70;99.90
23305;DHT22;11821;51.456;8.844;2023-04-30T10:17:26;20.10;99.90
23305;DHT22;11821;51.456;8.844;2023-04-30T10:20:00;20.40;99.90
23305;DHT22;11821;51.456;8.844;2023-04-30T10:22:29;20.10;99.90
23305;DHT22;11821;51.456;8.844;2023-04-30T10:24:55;19.80;99.90
23305;DHT22;11821;51.456;8.844;2023-04-30T10:27:22;20.10;99.90
23305;DHT22;11821;51.456;8.844;2023-04-30T10:29:49;20.40;99.90
23305;DHT22;11821;51.456;8.844;2023-04-30T10:32:17;20.10;99.90
23305;DHT22;11821;51.456;8.844;2023-04-30T10:34:55;20.40;99.80
23305;DHT22;11821;51.456;8.844;2023-04-30T10:37:35;20.50;99.80
23305;DHT22;11821;51.456;8.844;2023-04-30T10:40:04;21.00;99.90
23305;DHT22;11821;51.456;8.844;2023-04-30T10:42:33;21.10;98.70
23305;DHT22;11821;51.456;8.844;2023-04-30T10:45:01;21.40;98.60
23305;DHT22;11821;51.456;8.844;2023-04-30T10:47:28;21.20;97.80
23305;DHT22;11821;51.456;8.844;2023-04-30T10:50:08;21.00;97.60
23305;DHT22;11821;51.456;8.844;2023-04-30T10:52:37;21.30;99.40
23305;DHT22;11821;51.456;8.844;2023-04-30T10:55:08;21.50;99.90
23305;DHT22;11821;51.456;8.844;2023-04-30T10:57:44;21.60;98.90
23305;DHT22;11821;51.456;8.844;2023-04-30T11:00:24;22.00;99.90
23305;DHT22;11821;51.456;8.844;2023-04-30T11:02:55;21.70;98.10
23305;DHT22;11821;51.456;8.844;2023-04-30T11:05:34;21.30;97.70
23305;DHT22;11821;51.456;8.844;2023-04-30T11:08:00;21.20;99.20
23305;DHT22;11821;51.456;8.844;2023-04-30T11:10:31;20.60;98.80
23305;DHT22;11821;51.456;8.844;2023-04-30T11:13:05;21.00;99.20
23305;DHT22;11821;51.456;8.844;2023-04-30T11:15:40;21.00;98.60
23305;DHT22;11821;51.456;8.844;2023-04-30T11:18:07;21.40;97.50
23305;DHT22;11821;51.456;8.844;2023-04-30T11:20:39;21.60;98.50
23305;DHT22;11821;51.456;8.844;2023-04-30T11:23:08;21.90;97.40
23305;DHT22;11821;51.456;8.844;2023-04-30T11:25:45;21.60;97.70
23305;DHT22;11821;51.456;8.844;2023-04-30T11:28:14;21.70;97.00
23305;DHT22;11821;51.456;8.844;2023-04-30T11:30:55;22.00;98.00
23305;DHT22;11821;51.456;8.844;2023-04-30T11:33:24;21.80;98.00
23305;DHT22;11821;51.456;8.844;2023-04-30T11:35:52;21.60;99.30
23305;DHT22;11821;51.456;8.844;2023-04-30T11:38:30;21.80;96.70
23305;DHT22;11821;51.456;8.844;2023-04-30T11:41:01;21.30;97.40
23305;DHT22;11821;51.456;8.844;2023-04-30T11:43:30;20.90;97.60
23305;DHT22;11821;51.456;8.844;2023-04-30T11:46:14;20.50;98.20
23305;DHT22;11821;51.456;8.844;2023-04-30T11:48:45;21.00;97.90
23305;DHT22;11821;51.456;8.844;2023-04-30T11:51:17;21.30;98.00
23305;DHT22;11821;51.456;8.844;2023-04-30T11:53:49;21.30;98.30
23305;DHT22;11821;51.456;8.844;2023-04-30T11:56:22;21.30;97.80
23305;DHT22;11821;51.456;8.844;2023-04-30T11:58:51;21.20;98.40
23305;DHT22;11821;51.456;8.844;2023-04-30T12:01:18;21.30;97.50
23305;DHT22;11821;51.456;8.844;2023-04-30T12:03:47;21.30;98.10
23305;DHT22;11821;51.456;8.844;2023-04-30T12:06:25;21.70;98.70
23305;DHT22;11821;51.456;8.844;2023-04-30T12:08:53;22.00;99.20
23305;DHT22;11821;51.456;8.844;2023-04-30T12:11:21;21.90;98.30
23305;DHT22;11821;51.456;8.844;2023-04-30T12:14:02;21.90;98.10
23305;DHT22;11821;51.456;8.844;2023-04-30T12:16:44;22.00;97.60
23305;DHT22;11821;51.456;8.844;2023-04-30T12:19:11;21.90;96.40
23305;DHT22;11821;51.456;8.844;2023-04-30T12:21:38;22.10;98.20
23305;DHT22;11821;51.456;8.844;2023-04-30T12:24:06;22.10;97.60
23305;DHT22;11821;51.456;8.844;2023-04-30T12:26:34;21.80;97.50
23305;DHT22;11821;51.456;8.844;2023-04-30T12:29:13;21.70;97.90
23305;DHT22;11821;51.456;8.844;2023-04-30T12:31:40;21.90;97.80
23305;DHT22;11821;51.456;8.844;2023-04-30T12:34:08;22.10;98.00
23305;DHT22;11821;51.456;8.844;2023-04-30T12:36:35;22.40;96.50
23305;DHT22;11821;51.456;8.844;2023-04-30T12:39:14;22.30;97.50
23305;DHT22;11821;51.456;8.844;2023-04-30T12:41:50;22.60;96.70
23305;DHT22;11821;51.456;8.844;2023-04-30T12:44:21;22.10;95.50
23305;DHT22;11821;51.456;8.844;2023-04-30T12:46:48;22.20;97.30
23305;DHT22;11821;51.456;8.844;2023-04-30T12:49:26;21.90;95.80
23305;DHT22;11821;51.456;8.844;2023-04-30T12:52:09;22.00;96.70
23305;DHT22;11821;51.456;8.844;2023-04-30T12:54:37;21.60;96.00
23305;DHT22;11821;51.456;8.844;2023-04-30T12:57:11;21.60;95.60
23305;DHT22;11821;51.456;8.844;2023-04-30T13:00:07;21.60;96.00
23305;DHT22;11821;51.456;8.844;2023-04-30T13:02:33;21.60;96.40
23305;DHT22;11821;51.456;8.844;2023-04-30T13:05:00;21.50;96.70
23305;DHT22;11821;51.456;8.844;2023-04-30T13:07:35;21.60;96.20
23305;DHT22;11821;51.456;8.844;2023-04-30T13:10:03;21.80;96.10
23305;DHT22;11821;51.456;8.844;2023-04-30T13:12:30;22.10;95.80
23305;DHT22;11821;51.456;8.844;2023-04-30T13:14:56;22.00;95.80
23305;DHT22;11821;51.456;8.844;2023-04-30T13:17:23;21.70;95.70
23305;DHT22;11821;51.456;8.844;2023-04-30T13:19:49;21.40;95.40
23305;DHT22;11821;51.456;8.844;2023-04-30T13:22:15;21.40;96.90
23305;DHT22;11821;51.456;8.844;2023-04-30T13:24:42;21.50;96.10
23305;DHT22;11821;51.456;8.844;2023-04-30T13:27:08;21.30;95.20
23305;DHT22;11821;51.456;8.844;2023-04-30T13:29:34;21.50;95.50
23305;DHT22;11821;51.456;8.844;2023-04-30T13:32:00;21.60;95.10
23305;DHT22;11821;51.456;8.844;2023-04-30T13:34:27;22.00;94.80
23305;DHT22;11821;51.456;8.844;2023-04-30T13:36:53;21.70;94.50
23305;DHT22;11821;51.456;8.844;2023-04-30T13:39:20;21.30;95.10
23305;DHT22;11821;51.456;8.844;2023-04-30T13:41:47;21.30;95.70
23305;DHT22;11821;51.456;8.844;2023-04-30T13:44:14;21.40;96.40
23305;DHT22;11821;51.456;8.844;2023-04-30T13:46:42;21.50;95.50
23305;DHT22;11821;51.456;8.844;2023-04-30T13:49:08;21.50;96.00
23305;DHT22;11821;51.456;8.844;2023-04-30T13:51:35;21.50;94.60
23305;DHT22;11821;51.456;8.844;2023-04-30T13:54:02;21.10;94.60
23305;DHT22;11821;51.456;8.844;2023-04-30T13:56:28;21.20;96.60
23305;DHT22;11821;51.456;8.844;2023-04-30T13:58:54;21.10;95.50
23305;DHT22;11821;51.456;8.844;2023-04-30T14:01:26;21.00;94.40
23305;DHT22;11821;51.456;8.844;2023-04-30T14:03:52;21.00;95.70
23305;DHT22;11821;51.456;8.844;2023-04-30T14:06:19;20.60;94.80
23305;DHT22;11821;51.456;8.844;2023-04-30T14:08:45;20.70;96.10
23305;DHT22;11821;51.456;8.844;2023-04-30T14:11:11;20.80;95.60
23305;DHT22;11821;51.456;8.844;2023-04-30T14:13:37;21.00;95.50
23305;DHT22;11821;51.456;8.844;2023-04-30T14:16:04;20.80;95.70
23305;DHT22;11821;51.456;8.844;2023-04-30T14:18:31;20.70;94.80
23305;DHT22;11821;51.456;8.844;2023-04-30T14:20:57;20.70;95.60
23305;DHT22;11821;51.456;8.844;2023-04-30T14:23:23;20.70;95.10
23305;DHT22;11821;51.456;8.844;2023-04-30T14:25:51;20.50;94.70
23305;DHT22;11821;51.456;8.844;2023-04-30T14:28:19;20.40;96.50
23305;DHT22;11821;51.456;8.844;2023-04-30T14:30:45;20.50;95.40
23305;DHT22;11821;51.456;8.844;2023-04-30T14:33:12;20.50;96.20
23305;DHT22;11821;51.456;8.844;2023-04-30T14:38:08;20.60;95.70
23305;DHT22;11821;51.456;8.844;2023-04-30T14:40:35;20.90;94.20
23305;DHT22;11821;51.456;8.844;2023-04-30T14:43:01;21.10;95.60
23305;DHT22;11821;51.456;8.844;2023-04-30T14:45:28;21.10;95.80
23305;DHT22;11821;51.456;8.844;2023-04-30T14:47:54;21.00;95.00
23305;DHT22;11821;51.456;8.844;2023-04-30T14:50:20;20.80;94.70
23305;DHT22;11821;51.456;8.844;2023-04-30T14:57:40;20.10;95.20
23305;DHT22;11821;51.456;8.844;2023-04-30T15:07:30;20.30;95.20
23305;DHT22;11821;51.456;8.844;2023-04-30T15:09:56;21.00;95.10
23305;DHT22;11821;51.456;8.844;2023-04-30T15:12:23;20.80;94.60
23305;DHT22;11821;51.456;8.844;2023-04-30T15:14:49;20.80;94.50
23305;DHT22;11821;51.456;8.844;2023-04-30T15:17:16;20.70;94.10
23305;DHT22;11821;51.456;8.844;2023-04-30T15:19:42;20.50;93.60
23305;DHT22;11821;51.456;8.844;2023-04-30T15:22:11;20.60;94.50
23305;DHT22;11821;51.456;8.844;2023-04-30T15:24:37;20.40;93.40
23305;DHT22;11821;51.456;8.844;2023-04-30T15:27:04;20.40;94.20
23305;DHT22;11821;51.456;8.844;2023-04-30T15:29:30;20.60;95.40
23305;DHT22;11821;51.456;8.844;2023-04-30T15:31:56;20.70;94.30
23305;DHT22;11821;51.456;8.844;2023-04-30T15:34:24;20.70;95.30
23305;DHT22;11821;51.456;8.844;2023-04-30T15:36:52;20.80;93.20
23305;DHT22;11821;51.456;8.844;2023-04-30T15:39:19;20.70;92.60
23305;DHT22;11821;51.456;8.844;2023-04-30T15:41:46;20.70;93.00
23305;DHT22;11821;51.456;8.844;2023-04-30T15:44:12;20.50;93.90
23305;DHT22;11821;51.456;8.844;2023-04-30T15:46:38;20.40;93.50
23305;DHT22;11821;51.456;8.844;2023-04-30T15:49:05;20.30;92.60
23305;DHT22;11821;51.456;8.844;2023-04-30T15:51:31;20.30;93.30
23305;DHT22;11821;51.456;8.844;2023-04-30T15:53:59;20.20;92.90
23305;DHT22;11821;51.456;8.844;2023-04-30T15:56:25;20.00;92.70
23305;DHT22;11821;51.456;8.844;2023-04-30T16:01:21;19.80;92.60
23305;DHT22;11821;51.456;8.844;2023-04-30T16:03:48;19.80;93.50
23305;DHT22;11821;51.456;8.844;2023-04-30T16:06:15;19.70;92.10
23305;DHT22;11821;51.456;8.844;2023-04-30T16:08:42;19.60;92.20
23305;DHT22;11821;51.456;8.844;2023-04-30T16:11:09;19.70;91.80
23305;DHT22;11821;51.456;8.844;2023-04-30T16:13:35;19.50;92.90
23305;DHT22;11821;51.456;8.844;2023-04-30T16:16:03;19.50;92.70
23305;DHT22;11821;51.456;8.844;2023-04-30T16:18:29;19.80;94.10
23305;DHT22;11821;51.456;8.844;2023-04-30T16:20:56;19.70;93.30
23305;DHT22;11821;51.456;8.844;2023-04-30T16:23:22;19.70;92.70
23305;DHT22;11821;51.456;8.844;2023-04-30T16:25:49;19.70;92.70
23305;DHT22;11821;51.456;8.844;2023-04-30T16:28:15;19.90;93.40
23305;DHT22;11821;51.456;8.844;2023-04-30T16:30:42;20.00;92.40
23305;DHT22;11821;51.456;8.844;2023-04-30T16:33:10;19.90;93.60
23305;DHT22;11821;51.456;8.844;2023-04-30T16:35:37;20.10;91.90
23305;DHT22;11821;51.456;8.844;2023-04-30T16:38:04;20.20;93.40
23305;DHT22;11821;51.456;8.844;2023-04-30T16:40:30;20.20;93.20
23305;DHT22;11821;51.456;8.844;2023-04-30T16:42:57;20.00;92.00
23305;DHT22;11821;51.456;8.844;2023-04-30T16:45:24;19.70;91.80
23305;DHT22;11821;51.456;8.844;2023-04-30T16:47:52;19.70;91.70
23305;DHT22;11821;51.456;8.844;2023-04-30T16:50:18;19.60;93.30
23305;DHT22;11821;51.456;8.844;2023-04-30T16:52:45;19.50;93.10
23305;DHT22;11821;51.456;8.844;2023-04-30T16:55:11;19.50;93.10
23305;DHT22;11821;51.456;8.844;2023-04-30T16:57:38;19.30;92.80
23305;DHT22;11821;51.456;8.844;2023-04-30T17:00:05;19.40;92.40
23305;DHT22;11821;51.456;8.844;2023-04-30T17:02:36;19.30;93.00
23305;DHT22;11821;51.456;8.844;2023-04-30T17:05:03;19.40;93.10
23305;DHT22;11821;51.456;8.844;2023-04-30T17:07:33;19.60;93.60
23305;DHT22;11821;51.456;8.844;2023-04-30T17:09:59;19.20;92.50
23305;DHT22;11821;51.456;8.844;2023-04-30T17:12:25;19.20;94.60
23305;DHT22;11821;51.456;8.844;2023-04-30T17:14:54;19.40;94.60
23305;DHT22;11821;51.456;8.844;2023-04-30T17:17:23;19.30;93.60
23305;DHT22;11821;51.456;8.844;2023-04-30T17:19:50;19.40;94.30
23305;DHT22;11821;51.456;8.844;2023-04-30T17:22:16;19.40;93.70
23305;DHT22;11821;51.456;8.844;2023-04-30T17:24:45;19.40;93.60
23305;DHT22;11821;51.456;8.844;2023-04-30T17:27:11;19.30;93.90
23305;DHT22;11821;51.456;8.844;2023-04-30T17:29:38;19.20;93.10
23305;DHT22;11821;51.456;8.844;2023-04-30T17:32:04;19.20;94.70
23305;DHT22;11821;51.456;8.844;2023-04-30T17:34:31;19.00;93.80
23305;DHT22;11821;51.456;8.844;2023-04-30T17:36:57;18.80;94.10
23305;DHT22;11821;51.456;8.844;2023-04-30T17:39:23;18.70;94.60
23305;DHT22;11821;51.456;8.844;2023-04-30T17:41:50;18.60;95.10
23305;DHT22;11821;51.456;8.844;2023-04-30T17:44:16;18.50;95.50
23305;DHT22;11821;51.456;8.844;2023-04-30T17:46:42;18.50;97.70
23305;DHT22;11821;51.456;8.844;2023-04-30T17:49:09;18.30;95.80
23305;DHT22;11821;51.456;8.844;2023-04-30T17:51:36;18.10;96.30
23305;DHT22;11821;51.456;8.844;2023-04-30T17:54:02;17.90;95.30
23305;DHT22;11821;51.456;8.844;2023-04-30T17:56:30;17.90;96.60
23305;DHT22;11821;51.456;8.844;2023-04-30T17:58:57;17.90;98.50
23305;DHT22;11821;51.456;8.844;2023-04-30T18:01:24;17.70;95.40
23305;DHT22;11821;51.456;8.844;2023-04-30T18:03:51;17.50;95.70
23305;DHT22;11821;51.456;8.844;2023-04-30T18:06:18;17.40;95.50
23305;DHT22;11821;51.456;8.844;2023-04-30T18:08:44;17.50;95.90
23305;DHT22;11821;51.456;8.844;2023-04-30T18:11:11;17.60;98.10
23305;DHT22;11821;51.456;8.844;2023-04-30T18:13:38;17.50;98.10
23305;DHT22;11821;51.456;8.844;2023-04-30T18:16:04;17.50;97.70
23305;DHT22;11821;51.456;8.844;2023-04-30T18:18:31;17.30;97.20
23305;DHT22;11821;51.456;8.844;2023-04-30T18:20:58;17.30;99.40
23305;DHT22;11821;51.456;8.844;2023-04-30T18:23:25;17.20;98.40
23305;DHT22;11821;51.456;8.844;2023-04-30T18:25:51;17.10;97.30
23305;DHT22;11821;51.456;8.844;2023-04-30T18:28:18;17.10;98.60
23305;DHT22;11821;51.456;8.844;2023-04-30T18:30:44;17.00;99.50
23305;DHT22;11821;51.456;8.844;2023-04-30T18:33:11;17.00;98.30
23305;DHT22;11821;51.456;8.844;2023-04-30T18:35:37;17.00;98.40
23305;DHT22;11821;51.456;8.844;2023-04-30T18:38:03;16.90;97.60
23305;DHT22;11821;51.456;8.844;2023-04-30T18:40:33;16.90;99.10
23305;DHT22;11821;51.456;8.844;2023-04-30T18:43:00;16.90;98.60
23305;DHT22;11821;51.456;8.844;2023-04-30T18:45:26;16.80;99.30
23305;DHT22;11821;51.456;8.844;2023-04-30T18:47:53;16.70;99.70
23305;DHT22;11821;51.456;8.844;2023-04-30T18:50:20;16.70;99.90
23305;DHT22;11821;51.456;8.844;2023-04-30T18:52:47;16.60;99.50
23305;DHT22;11821;51.456;8.844;2023-04-30T18:55:14;16.50;98.50
23305;DHT22;11821;51.456;8.844;2023-04-30T18:57:41;16.40;99.60
23305;DHT22;11821;51.456;8.844;2023-04-30T19:00:08;16.30;99.90
23305;DHT22;11821;51.456;8.844;2023-04-30T19:02:35;16.30;99.70
23305;DHT22;11821;51.456;8.844;2023-04-30T19:05:01;16.20;99.90
23305;DHT22;11821;51.456;8.844;2023-04-30T19:07:28;16.10;99.70
23305;DHT22;11821;51.456;8.844;2023-04-30T19:09:54;16.10;99.60
23305;DHT22;11821;51.456;8.844;2023-04-30T19:12:21;16.00;99.90
23305;DHT22;11821;51.456;8.844;2023-04-30T19:14:47;15.90;99.90
23305;DHT22;11821;51.456;8.844;2023-04-30T19:17:13;15.80;99.90
23305;DHT22;11821;51.456;8.844;2023-04-30T19:19:42;15.70;99.90
23305;DHT22;11821;51.456;8.844;2023-04-30T19:22:08;15.60;99.90
23305;DHT22;11821;51.456;8.844;2023-04-30T19:24:34;15.50;99.90
23305;DHT22;11821;51.456;8.844;2023-04-30T19:27:01;15.40;99.90
23305;DHT22;11821;51.456;8.844;2023-04-30T19:29:29;15.30;99.90
23305;DHT22;11821;51.456;8.844;2023-04-30T19:31:57;15.20;99.90
23305;DHT22;11821;51.456;8.844;2023-04-30T19:34:26;15.10;99.90
23305;DHT22;11821;51.456;8.844;2023-04-30T19:36:52;14.90;99.90
23305;DHT22;11821;51.456;8.844;2023-04-30T19:39:18;14.90;99.90
23305;DHT22;11821;51.456;8.844;2023-04-30T19:41:45;14.80;99.90
23305;DHT22;11821;51.456;8.844;2023-04-30T19:44:16;14.70;99.90
23305;DHT22;11821;51.456;8.844;2023-04-30T19:46:42;14.70;99.90
23305;DHT22;11821;51.456;8.844;2023-04-30T19:49:09;14.60;99.90
23305;DHT22;11821;51.456;8.844;2023-04-30T19:51:35;14.50;99.90
23305;DHT22;11821;51.456;8.844;2023-04-30T19:54:02;14.50;99.90
23305;DHT22;11821;51.456;8.844;2023-04-30T19:56:28;14.30;99.90
23305;DHT22;11821;51.456;8.844;2023-04-30T19:58:57;14.30;99.90
23305;DHT22;11821;51.456;8.844;2023-04-30T20:01:23;14.20;99.90
23305;DHT22;11821;51.456;8.844;2023-04-30T20:03:49;14.20;99.90
23305;DHT22;11821;51.456;8.844;2023-04-30T20:06:15;14.00;99.90
23305;DHT22;11821;51.456;8.844;2023-04-30T20:08:42;13.90;99.90
23305;DHT22;11821;51.456;8.844;2023-04-30T20:11:08;13.90;99.90
23305;DHT22;11821;51.456;8.844;2023-04-30T20:13:34;13.80;99.90
23305;DHT22;11821;51.456;8.844;2023-04-30T20:16:01;13.70;99.90
23305;DHT22;11821;51.456;8.844;2023-04-30T20:18:27;13.60;99.90
23305;DHT22;11821;51.456;8.844;2023-04-30T20:20:56;13.60;99.90
23305;DHT22;11821;51.456;8.844;2023-04-30T20:23:23;13.50;99.90
23305;DHT22;11821;51.456;8.844;2023-04-30T20:25:49;13.40;99.90
23305;DHT22;11821;51.456;8.844;2023-04-30T20:28:17;13.30;99.90
23305;DHT22;11821;51.456;8.844;2023-04-30T20:30:43;13.30;99.90
23305;DHT22;11821;51.456;8.844;2023-04-30T20:33:11;13.20;99.90
23305;DHT22;11821;51.456;8.844;2023-04-30T20:38:08;13.20;99.90
